createdAt,value
2022-10-23T00:00:32.016Z,16.80
2022-10-23T00:01:31.905Z,14.70
2022-10-23T00:02:32.953Z,15.80
2022-10-23T00:03:31.894Z,17.70
2022-10-23T00:04:31.889Z,15.40
2022-10-23T00:05:31.903Z,15.50
2022-10-23T00:06:31.871Z,14.00
2022-10-23T00:07:31.888Z,21.00
2022-10-23T00:08:31.856Z,14.60
2022-10-23T00:09:31.852Z,17.70
2022-10-23T00:10:31.865Z,16.30
2022-10-23T00:11:31.829Z,16.00
2022-10-23T00:12:31.822Z,16.30
2022-10-23T00:13:31.816Z,15.70
2022-10-23T00:14:31.808Z,13.80
2022-10-23T00:15:31.832Z,19.30
2022-10-23T00:16:31.802Z,20.00
2022-10-23T00:17:31.780Z,13.20
2022-10-23T00:18:31.771Z,23.60
2022-10-23T00:19:31.770Z,13.90
2022-10-23T00:20:31.790Z,15.70
2022-10-23T00:21:31.758Z,16.30
2022-10-23T00:22:31.744Z,14.70
2022-10-23T00:23:31.751Z,15.60
2022-10-23T00:24:31.728Z,16.40
2022-10-23T00:25:31.762Z,18.70
2022-10-23T00:26:31.714Z,17.30
2022-10-23T00:27:31.710Z,12.90
2022-10-23T00:28:31.702Z,13.20
2022-10-23T00:29:31.699Z,14.50
2022-10-23T00:30:31.719Z,11.40
2022-10-23T00:31:31.684Z,15.60
2022-10-23T00:33:31.670Z,13.60
2022-10-23T00:34:31.662Z,9.40
2022-10-23T00:35:31.646Z,12.80
2022-10-23T00:36:31.660Z,12.10
2022-10-23T00:37:31.646Z,10.20
2022-10-23T00:38:31.633Z,12.30
2022-10-23T00:39:31.616Z,14.90
2022-10-23T00:40:31.610Z,15.20
2022-10-23T00:41:31.620Z,21.10
2022-10-23T00:42:31.594Z,13.10
2022-10-23T00:43:31.583Z,14.90
2022-10-23T00:44:31.575Z,19.00
2022-10-23T00:45:31.572Z,16.70
2022-10-23T00:46:31.589Z,16.30
2022-10-23T00:47:31.558Z,13.70
2022-10-23T00:48:31.551Z,15.30
2022-10-23T00:49:33.516Z,18.00
2022-10-23T00:50:32.537Z,17.70
2022-10-23T00:51:31.546Z,20.30
2022-10-23T00:52:31.514Z,15.40
2022-10-23T00:53:31.504Z,13.20
2022-10-23T00:54:31.498Z,16.90
2022-10-23T00:55:31.484Z,16.60
2022-10-23T00:56:31.504Z,13.00
2022-10-23T00:57:31.486Z,20.40
2022-10-23T00:58:31.465Z,34.70
2022-10-23T00:59:31.460Z,13.90
2022-10-23T01:00:31.454Z,16.00
2022-10-23T01:01:31.675Z,18.90
2022-10-23T01:02:31.497Z,17.50
2022-10-23T01:03:31.426Z,12.70
2022-10-23T01:04:31.412Z,21.30
2022-10-23T01:05:31.441Z,19.00
2022-10-23T01:06:31.401Z,20.20
2022-10-23T01:07:31.391Z,13.60
2022-10-23T01:08:31.381Z,14.90
2022-10-23T01:09:31.368Z,14.50
2022-10-23T01:10:31.394Z,18.70
2022-10-23T01:11:31.363Z,18.60
2022-10-23T01:12:31.346Z,12.60
2022-10-23T01:13:31.345Z,15.50
2022-10-23T01:14:31.337Z,16.90
2022-10-23T01:15:31.329Z,12.90
2022-10-23T01:16:31.356Z,14.90
2022-10-23T01:17:31.310Z,13.50
2022-10-23T01:18:31.308Z,14.70
2022-10-23T01:19:31.296Z,19.50
2022-10-23T01:20:31.295Z,16.60
2022-10-23T01:21:31.315Z,12.70
2022-10-23T01:22:31.274Z,19.80
2022-10-23T01:23:31.268Z,12.60
2022-10-23T01:24:31.260Z,13.10
2022-10-23T01:25:31.247Z,19.70
2022-10-23T01:26:31.281Z,15.50
2022-10-23T01:27:31.234Z,14.60
2022-10-23T01:28:31.231Z,13.60
2022-10-23T01:29:31.223Z,12.90
2022-10-23T01:30:31.288Z,11.10
2022-10-23T01:31:31.241Z,14.50
2022-10-23T01:32:31.205Z,19.10
2022-10-23T01:33:31.185Z,13.00
2022-10-23T01:34:31.173Z,17.40
2022-10-23T01:35:31.172Z,11.10
2022-10-23T01:36:31.203Z,19.70
2022-10-23T01:37:31.163Z,14.10
2022-10-23T01:38:31.151Z,14.10
2022-10-23T01:39:31.146Z,14.20
2022-10-23T01:40:31.137Z,19.40
2022-10-23T01:41:31.151Z,11.10
2022-10-23T01:42:31.118Z,13.80
2022-10-23T01:43:31.106Z,18.00
2022-10-23T01:44:31.098Z,14.10
2022-10-23T01:45:31.090Z,15.50
2022-10-23T01:46:31.123Z,13.90
2022-10-23T01:47:31.084Z,11.90
2022-10-23T01:48:31.068Z,13.80
2022-10-23T01:49:31.061Z,18.10
2022-10-23T01:50:31.054Z,9.60
2022-10-23T01:51:31.072Z,10.10
2022-10-23T01:52:31.042Z,12.80
2022-10-23T01:53:31.022Z,19.10
2022-10-23T01:54:31.028Z,15.40
2022-10-23T01:55:31.141Z,14.20
2022-10-23T01:56:31.005Z,13.00
2022-10-23T01:57:31.025Z,9.70
2022-10-23T01:58:30.987Z,13.50
2022-10-23T01:59:30.982Z,8.40
2022-10-23T02:00:30.980Z,12.00
2022-10-23T02:01:31.060Z,16.40
2022-10-23T02:02:31.034Z,12.90
2022-10-23T02:03:30.955Z,12.60
2022-10-23T02:04:30.953Z,16.80
2022-10-23T02:05:30.930Z,10.70
2022-10-23T02:06:31.942Z,20.20
2022-10-23T02:07:30.946Z,23.60
2022-10-23T02:08:30.923Z,11.00
2022-10-23T02:09:30.914Z,13.90
2022-10-23T02:10:30.902Z,20.10
2022-10-23T02:11:30.889Z,16.00
2022-10-23T02:12:30.920Z,14.90
2022-10-23T02:13:30.879Z,15.90
2022-10-23T02:14:30.867Z,10.90
2022-10-23T02:15:30.863Z,9.50
2022-10-23T02:16:30.860Z,11.90
2022-10-23T02:17:30.870Z,15.50
2022-10-23T02:18:30.841Z,16.40
2022-10-23T02:19:30.831Z,15.40
2022-10-23T02:20:31.857Z,11.20
2022-10-23T02:21:30.819Z,12.50
2022-10-23T02:22:30.829Z,10.00
2022-10-23T02:23:30.807Z,7.50
2022-10-23T02:24:30.785Z,10.40
2022-10-23T02:25:30.781Z,9.50
2022-10-23T02:26:30.779Z,5.80
2022-10-23T02:27:30.790Z,8.50
2022-10-23T02:28:30.763Z,9.00
2022-10-23T02:29:30.752Z,9.40
2022-10-23T02:30:30.745Z,9.00
2022-10-23T02:31:30.736Z,12.50
2022-10-23T02:32:30.753Z,10.90
2022-10-23T02:33:30.712Z,11.50
2022-10-23T02:34:30.716Z,13.70
2022-10-23T02:35:30.695Z,6.50
2022-10-23T02:36:30.693Z,8.60
2022-10-23T02:37:30.730Z,9.70
2022-10-23T02:38:30.677Z,11.80
2022-10-23T02:39:30.673Z,7.40
2022-10-23T02:40:30.658Z,7.80
2022-10-23T02:41:30.651Z,12.70
2022-10-23T02:42:30.674Z,11.30
2022-10-23T02:43:30.639Z,8.00
2022-10-23T02:44:30.633Z,6.40
2022-10-23T02:45:30.673Z,8.90
2022-10-23T02:46:30.615Z,17.30
2022-10-23T02:47:30.604Z,10.10
2022-10-23T02:48:30.631Z,11.60
2022-10-23T02:49:30.602Z,7.10
2022-10-23T02:50:30.590Z,11.20
2022-10-23T02:51:30.574Z,10.20
2022-10-23T02:52:30.598Z,9.00
2022-10-23T02:53:30.562Z,10.80
2022-10-23T02:54:30.554Z,10.80
2022-10-23T02:55:30.546Z,16.60
2022-10-23T02:56:31.826Z,17.60
2022-10-23T02:57:30.552Z,12.50
2022-10-23T02:58:30.518Z,14.80
2022-10-23T02:59:30.517Z,15.20
2022-10-23T03:00:30.497Z,9.60
2022-10-23T03:01:31.578Z,12.60
2022-10-23T03:03:31.491Z,14.20
2022-10-23T03:04:30.485Z,9.80
2022-10-23T03:05:30.472Z,14.10
2022-10-23T03:06:30.458Z,15.20
2022-10-23T03:07:30.499Z,19.10
2022-10-23T03:08:30.452Z,13.20
2022-10-23T03:09:30.444Z,7.30
2022-10-23T03:10:30.428Z,13.10
2022-10-23T03:11:30.427Z,14.50
2022-10-23T03:12:30.442Z,14.40
2022-10-23T03:13:30.403Z,10.50
2022-10-23T03:14:30.405Z,13.70
2022-10-23T03:15:30.393Z,23.00
2022-10-23T03:16:30.383Z,14.50
2022-10-23T03:17:30.387Z,15.60
2022-10-23T03:18:30.393Z,16.10
2022-10-23T03:19:30.358Z,25.20
2022-10-23T03:20:30.356Z,19.80
2022-10-23T03:21:30.343Z,16.80
2022-10-23T03:22:30.350Z,16.30
2022-10-23T03:23:30.357Z,23.10
2022-10-23T03:24:30.325Z,18.40
2022-10-23T03:25:30.316Z,19.00
2022-10-23T03:26:30.310Z,26.60
2022-10-23T03:27:30.300Z,13.70
2022-10-23T03:28:30.317Z,20.60
2022-10-23T03:29:30.288Z,18.10
2022-10-23T03:30:30.272Z,11.30
2022-10-23T03:31:30.267Z,15.70
2022-10-23T03:32:30.264Z,12.60
2022-10-23T03:33:30.284Z,13.30
2022-10-23T03:34:30.239Z,23.00
2022-10-23T03:35:30.237Z,19.40
2022-10-23T03:36:30.235Z,15.30
2022-10-23T03:37:30.220Z,15.80
2022-10-23T03:38:30.237Z,31.00
2022-10-23T03:39:30.206Z,14.70
2022-10-23T03:40:30.194Z,11.80
2022-10-23T03:41:30.197Z,18.80
2022-10-23T03:42:30.191Z,21.30
2022-10-23T03:43:30.197Z,12.00
2022-10-23T03:44:30.170Z,20.80
2022-10-23T03:45:30.160Z,20.00
2022-10-23T03:46:30.159Z,17.00
2022-10-23T03:47:30.141Z,16.00
2022-10-23T03:48:30.155Z,13.70
2022-10-23T03:49:30.138Z,13.60
2022-10-23T03:50:30.119Z,15.80
2022-10-23T03:51:30.115Z,10.60
2022-10-23T03:52:30.107Z,15.00
2022-10-23T03:53:30.121Z,10.10
2022-10-23T03:54:30.088Z,12.00
2022-10-23T03:55:30.083Z,11.10
2022-10-23T03:56:30.072Z,12.30
2022-10-23T03:57:30.064Z,10.10
2022-10-23T03:58:30.079Z,14.10
2022-10-23T03:59:30.048Z,8.20
2022-10-23T04:00:30.090Z,12.30
2022-10-23T04:01:30.149Z,8.20
2022-10-23T04:02:30.070Z,8.40
2022-10-23T04:03:30.037Z,10.90
2022-10-23T04:04:30.001Z,6.00
2022-10-23T04:05:29.991Z,8.10
2022-10-23T04:06:29.988Z,9.50
2022-10-23T04:07:29.981Z,8.90
2022-10-23T04:08:29.992Z,7.50
2022-10-23T04:09:29.961Z,6.50
2022-10-23T04:10:29.958Z,14.50
2022-10-23T04:11:29.945Z,10.60
2022-10-23T04:12:29.936Z,6.10
2022-10-23T04:13:29.957Z,6.30
2022-10-23T04:14:29.921Z,8.50
2022-10-23T04:15:29.923Z,14.70
2022-10-23T04:16:29.907Z,4.90
2022-10-23T04:17:29.925Z,5.70
2022-10-23T04:18:29.913Z,7.10
2022-10-23T04:19:29.878Z,6.30
2022-10-23T04:20:29.875Z,7.60
2022-10-23T04:21:29.868Z,5.90
2022-10-23T04:22:29.862Z,5.20
2022-10-23T04:23:29.877Z,6.80
2022-10-23T04:24:29.849Z,8.80
2022-10-23T04:25:29.837Z,9.00
2022-10-23T04:26:29.831Z,9.20
2022-10-23T04:27:29.825Z,8.50
2022-10-23T04:28:29.843Z,11.10
2022-10-23T04:29:29.800Z,8.00
2022-10-23T04:30:29.803Z,5.60
2022-10-23T04:31:29.791Z,8.60
2022-10-23T04:32:29.780Z,9.90
2022-10-23T04:33:29.803Z,8.80
2022-10-23T04:34:29.759Z,8.30
2022-10-23T04:35:29.762Z,7.80
2022-10-23T04:36:29.745Z,7.20
2022-10-23T04:37:29.776Z,7.10
2022-10-23T04:38:29.763Z,6.90
2022-10-23T04:39:29.719Z,7.90
2022-10-23T04:40:29.719Z,10.20
2022-10-23T04:41:29.711Z,13.80
2022-10-23T04:42:29.702Z,19.00
2022-10-23T04:43:29.695Z,17.50
2022-10-23T04:44:29.707Z,17.60
2022-10-23T04:45:29.672Z,16.80
2022-10-23T04:46:29.662Z,14.00
2022-10-23T04:47:29.661Z,12.60
2022-10-23T04:48:29.645Z,12.10
2022-10-23T04:49:29.672Z,9.00
2022-10-23T04:50:29.643Z,9.20
2022-10-23T04:51:29.628Z,7.10
2022-10-23T04:52:29.615Z,6.80
2022-10-23T04:53:29.619Z,9.40
2022-10-23T04:54:29.633Z,4.30
2022-10-23T04:55:29.603Z,12.70
2022-10-23T04:56:29.606Z,3.90
2022-10-23T04:57:29.589Z,6.10
2022-10-23T04:58:29.576Z,5.20
2022-10-23T04:59:29.596Z,6.50
2022-10-23T05:00:29.628Z,7.90
2022-10-23T05:01:29.608Z,6.00
2022-10-23T05:02:29.539Z,10.50
2022-10-23T05:03:29.587Z,8.90
2022-10-23T05:04:29.535Z,8.00
2022-10-23T05:05:30.517Z,10.30
2022-10-23T05:06:29.505Z,8.80
2022-10-23T05:07:29.507Z,10.90
2022-10-23T05:08:29.490Z,5.50
2022-10-23T05:09:29.512Z,6.00
2022-10-23T05:10:29.475Z,5.70
2022-10-23T05:11:29.467Z,5.30
2022-10-23T05:12:29.458Z,4.80
2022-10-23T05:13:29.457Z,6.10
2022-10-23T05:14:29.469Z,7.70
2022-10-23T05:15:29.515Z,6.80
2022-10-23T05:16:29.432Z,6.50
2022-10-23T05:17:29.428Z,9.50
2022-10-23T05:18:29.420Z,5.70
2022-10-23T05:19:29.435Z,7.10
2022-10-23T05:20:29.400Z,9.30
2022-10-23T05:21:29.397Z,9.20
2022-10-23T05:22:29.386Z,5.10
2022-10-23T05:23:29.382Z,10.60
2022-10-23T05:24:29.394Z,10.30
2022-10-23T05:25:29.363Z,10.60
2022-10-23T05:26:29.363Z,6.40
2022-10-23T05:27:29.348Z,12.80
2022-10-23T05:28:29.343Z,11.10
2022-10-23T05:29:29.357Z,5.70
2022-10-23T05:30:29.325Z,7.60
2022-10-23T05:31:29.316Z,8.70
2022-10-23T05:32:29.311Z,6.20
2022-10-23T05:33:29.303Z,11.20
2022-10-23T05:34:29.326Z,11.40
2022-10-23T05:35:29.283Z,9.80
2022-10-23T05:36:29.272Z,14.60
2022-10-23T05:37:29.264Z,21.20
2022-10-23T05:38:29.258Z,19.30
2022-10-23T05:39:29.277Z,23.90
2022-10-23T05:40:29.356Z,16.30
2022-10-23T05:41:29.238Z,26.80
2022-10-23T05:42:29.229Z,19.40
2022-10-23T05:43:29.223Z,22.20
2022-10-23T05:44:29.240Z,20.00
2022-10-23T05:45:29.207Z,22.70
2022-10-23T05:46:29.200Z,34.20
2022-10-23T05:47:29.188Z,25.20
2022-10-23T05:48:36.254Z,26.10
2022-10-23T05:49:31.199Z,20.30
2022-10-23T05:50:29.165Z,31.70
2022-10-23T05:51:29.160Z,41.10
2022-10-23T05:52:29.151Z,22.50
2022-10-23T05:53:29.144Z,38.40
2022-10-23T05:54:29.157Z,60.50
2022-10-23T05:55:29.128Z,100.40
2022-10-23T05:56:29.120Z,74.10
2022-10-23T05:57:29.111Z,42.40
2022-10-23T05:58:29.105Z,34.70
2022-10-23T05:59:29.120Z,26.60
2022-10-23T06:00:29.113Z,28.80
2022-10-23T06:01:29.287Z,31.60
2022-10-23T06:02:29.146Z,21.90
2022-10-23T06:03:29.069Z,30.90
2022-10-23T06:04:29.085Z,29.90
2022-10-23T06:05:29.098Z,20.00
2022-10-23T06:06:29.045Z,31.30
2022-10-23T06:07:31.213Z,15.30
2022-10-23T06:08:29.028Z,10.40
2022-10-23T06:09:29.043Z,11.40
2022-10-23T06:10:29.077Z,10.50
2022-10-23T06:11:29.005Z,7.80
2022-10-23T06:12:28.999Z,11.80
2022-10-23T06:13:28.988Z,10.00
2022-10-23T06:14:29.008Z,12.90
2022-10-23T06:15:28.971Z,17.30
2022-10-23T06:16:28.964Z,22.00
2022-10-23T06:17:28.961Z,15.90
2022-10-23T06:18:28.955Z,26.00
2022-10-23T06:19:28.969Z,16.90
2022-10-23T06:20:28.979Z,21.60
2022-10-23T06:21:28.929Z,19.00
2022-10-23T06:22:28.924Z,19.30
2022-10-23T06:23:28.914Z,14.50
2022-10-23T06:24:28.929Z,9.10
2022-10-23T06:25:28.901Z,11.40
2022-10-23T06:26:28.892Z,10.40
2022-10-23T06:27:28.887Z,13.10
2022-10-23T06:28:28.877Z,6.60
2022-10-23T06:29:28.892Z,10.40
2022-10-23T06:30:28.990Z,12.00
2022-10-23T06:31:28.860Z,6.60
2022-10-23T06:32:28.853Z,11.60
2022-10-23T06:33:28.837Z,7.50
2022-10-23T06:34:28.857Z,6.20
2022-10-23T06:35:28.821Z,8.70
2022-10-23T06:36:28.816Z,8.70
2022-10-23T06:37:28.807Z,14.20
2022-10-23T06:38:28.798Z,6.60
2022-10-23T06:39:31.942Z,11.90
2022-10-23T06:40:28.863Z,8.60
2022-10-23T06:41:28.772Z,12.00
2022-10-23T06:42:28.767Z,12.20
2022-10-23T06:43:28.760Z,29.80
2022-10-23T06:44:28.788Z,13.90
2022-10-23T06:45:28.739Z,11.60
2022-10-23T06:46:28.734Z,11.20
2022-10-23T06:47:28.726Z,11.40
2022-10-23T06:48:28.716Z,10.60
2022-10-23T06:49:28.735Z,8.80
2022-10-23T06:50:28.703Z,6.20
2022-10-23T06:51:28.692Z,20.20
2022-10-23T06:52:45.940Z,13.20
2022-10-23T06:53:30.676Z,19.80
2022-10-23T06:54:28.669Z,19.40
2022-10-23T06:55:28.738Z,23.70
2022-10-23T06:56:28.656Z,13.60
2022-10-23T06:57:28.651Z,16.80
2022-10-23T06:58:28.643Z,18.40
2022-10-23T06:59:28.665Z,10.00
2022-10-23T07:00:28.796Z,15.30
2022-10-23T07:01:28.798Z,8.80
2022-10-23T07:02:28.615Z,6.20
2022-10-23T07:03:28.605Z,9.00
2022-10-23T07:04:28.630Z,5.90
2022-10-23T07:05:28.587Z,6.20
2022-10-23T07:06:28.579Z,6.30
2022-10-23T07:07:28.578Z,10.60
2022-10-23T07:08:28.563Z,7.90
2022-10-23T07:09:28.586Z,6.70
2022-10-23T07:10:28.558Z,8.20
2022-10-23T07:11:28.539Z,5.80
2022-10-23T07:12:28.533Z,4.20
2022-10-23T07:13:28.524Z,3.90
2022-10-23T07:14:28.516Z,5.20
2022-10-23T07:15:28.534Z,4.50
2022-10-23T07:16:28.530Z,3.20
2022-10-23T07:17:28.498Z,5.10
2022-10-23T07:18:28.532Z,5.90
2022-10-23T07:19:28.481Z,3.90
2022-10-23T07:20:28.473Z,5.30
2022-10-23T07:21:28.495Z,3.70
2022-10-23T07:22:28.460Z,3.20
2022-10-23T07:23:28.455Z,2.70
2022-10-23T07:24:28.446Z,3.10
2022-10-23T07:25:28.437Z,4.90
2022-10-23T07:26:28.462Z,2.00
2022-10-23T07:27:28.420Z,5.20
2022-10-23T07:28:28.422Z,5.70
2022-10-23T07:29:28.407Z,3.90
2022-10-23T07:30:28.400Z,5.30
2022-10-23T07:31:28.512Z,5.70
2022-10-23T07:32:28.386Z,4.40
2022-10-23T07:33:28.377Z,2.90
2022-10-23T07:34:28.368Z,4.60
2022-10-23T07:35:28.365Z,3.90
2022-10-23T07:36:28.355Z,5.40
2022-10-23T07:37:28.373Z,5.50
2022-10-23T07:38:28.341Z,6.90
2022-10-23T07:39:28.338Z,9.80
2022-10-23T07:40:28.326Z,10.10
2022-10-23T07:41:28.322Z,11.10
2022-10-23T07:42:28.335Z,6.90
2022-10-23T07:43:28.353Z,6.90
2022-10-23T07:44:28.297Z,8.50
2022-10-23T07:45:28.293Z,6.30
2022-10-23T07:46:28.287Z,8.80
2022-10-23T07:47:28.299Z,7.60
2022-10-23T07:48:28.263Z,7.50
2022-10-23T07:49:28.272Z,10.00
2022-10-23T07:50:28.250Z,9.00
2022-10-23T07:51:28.244Z,15.40
2022-10-23T07:52:32.002Z,20.00
2022-10-23T07:53:30.223Z,12.70
2022-10-23T07:54:28.217Z,5.80
2022-10-23T07:55:28.208Z,16.40
2022-10-23T07:56:28.199Z,10.60
2022-10-23T07:57:28.220Z,12.90
2022-10-23T07:58:28.187Z,18.30
2022-10-23T07:59:28.176Z,24.70
2022-10-23T08:00:28.174Z,38.80
2022-10-23T08:01:28.283Z,39.60
2022-10-23T08:02:28.253Z,23.80
2022-10-23T08:03:28.142Z,21.10
2022-10-23T08:04:28.135Z,37.60
2022-10-23T08:05:28.127Z,54.90
2022-10-23T08:06:28.122Z,44.50
2022-10-23T08:07:28.138Z,41.60
2022-10-23T08:08:28.108Z,51.90
2022-10-23T08:09:28.101Z,19.90
2022-10-23T08:10:28.091Z,25.10
2022-10-23T08:11:28.079Z,29.90
2022-10-23T08:12:28.100Z,35.20
2022-10-23T08:13:28.069Z,26.00
2022-10-23T08:14:28.060Z,37.40
2022-10-23T08:15:28.058Z,25.00
2022-10-23T08:16:28.053Z,29.30
2022-10-23T08:17:28.359Z,18.30
2022-10-23T08:18:28.028Z,12.10
2022-10-23T08:19:28.021Z,6.40
2022-10-23T08:20:28.011Z,6.40
2022-10-23T08:21:28.005Z,11.30
2022-10-23T08:22:28.018Z,9.20
2022-10-23T08:23:27.989Z,7.10
2022-10-23T08:24:27.973Z,14.80
2022-10-23T08:25:27.995Z,13.80
2022-10-23T08:26:27.964Z,9.50
2022-10-23T08:27:27.981Z,5.10
2022-10-23T08:28:27.945Z,8.70
2022-10-23T08:29:27.943Z,8.40
2022-10-23T08:30:27.927Z,8.40
2022-10-23T08:31:27.922Z,6.30
2022-10-23T08:32:27.941Z,2.60
2022-10-23T08:33:27.907Z,4.80
2022-10-23T08:34:27.898Z,5.30
2022-10-23T08:35:27.888Z,7.70
2022-10-23T08:36:27.881Z,4.60
2022-10-23T08:37:27.901Z,7.60
2022-10-23T08:38:27.868Z,5.50
2022-10-23T08:39:27.859Z,6.50
2022-10-23T08:40:27.853Z,4.50
2022-10-23T08:41:27.847Z,10.30
2022-10-23T08:42:27.864Z,8.50
2022-10-23T08:43:27.828Z,8.80
2022-10-23T08:44:27.823Z,4.50
2022-10-23T08:45:27.818Z,7.50
2022-10-23T08:46:27.807Z,14.00
2022-10-23T08:47:27.833Z,11.50
2022-10-23T08:48:27.789Z,7.50
2022-10-23T08:49:27.784Z,9.30
2022-10-23T08:51:27.765Z,6.70
2022-10-23T08:52:27.786Z,6.10
2022-10-23T08:53:27.746Z,8.70
2022-10-23T08:54:27.786Z,6.90
2022-10-23T08:55:27.735Z,4.60
2022-10-23T08:56:27.727Z,6.00
2022-10-23T08:57:27.725Z,5.50
2022-10-23T08:58:27.744Z,4.00
2022-10-23T08:59:27.704Z,5.30
2022-10-23T09:00:27.703Z,3.70
2022-10-23T09:01:27.773Z,4.20
2022-10-23T09:02:27.771Z,10.40
2022-10-23T09:03:27.701Z,5.40
2022-10-23T09:04:27.667Z,3.70
2022-10-23T09:05:27.661Z,5.50
2022-10-23T09:06:27.653Z,4.10
2022-10-23T09:07:27.649Z,4.30
2022-10-23T09:08:27.664Z,5.80
2022-10-23T09:09:27.633Z,5.20
2022-10-23T09:10:27.618Z,4.80
2022-10-23T09:11:27.609Z,3.70
2022-10-23T09:12:27.606Z,5.80
2022-10-23T09:13:27.627Z,5.70
2022-10-23T09:14:27.596Z,4.30
2022-10-23T09:15:27.584Z,4.40
2022-10-23T09:16:27.574Z,3.90
2022-10-23T09:17:27.575Z,3.80
2022-10-23T09:18:27.584Z,6.70
2022-10-23T09:19:27.552Z,2.70
2022-10-23T09:20:27.543Z,4.40
2022-10-23T09:21:27.539Z,4.10
2022-10-23T09:22:27.528Z,4.90
2022-10-23T09:23:27.547Z,5.00
2022-10-23T09:24:27.532Z,3.90
2022-10-23T09:25:27.506Z,5.10
2022-10-23T09:26:27.502Z,5.10
2022-10-23T09:27:27.498Z,4.70
2022-10-23T09:28:27.510Z,5.10
2022-10-23T09:29:27.482Z,5.80
2022-10-23T09:30:27.476Z,3.40
2022-10-23T09:31:27.466Z,7.10
2022-10-23T09:32:27.458Z,4.60
2022-10-23T09:33:27.478Z,3.00
2022-10-23T09:34:27.447Z,3.60
2022-10-23T09:35:27.439Z,4.40
2022-10-23T09:36:27.427Z,4.30
2022-10-23T09:37:27.429Z,3.60
2022-10-23T09:38:27.434Z,2.90
2022-10-23T09:39:27.400Z,5.10
2022-10-23T09:40:27.395Z,3.60
2022-10-23T09:41:27.389Z,4.20
2022-10-23T09:42:27.381Z,3.70
2022-10-23T09:43:27.399Z,3.50
2022-10-23T09:44:27.362Z,6.70
2022-10-23T09:45:27.359Z,4.60
2022-10-23T09:46:27.348Z,3.40
2022-10-23T09:47:27.337Z,4.80
2022-10-23T09:48:27.376Z,4.50
2022-10-23T09:49:27.321Z,6.50
2022-10-23T09:50:27.315Z,4.40
2022-10-23T09:51:27.308Z,3.10
2022-10-23T09:52:27.300Z,3.10
2022-10-23T09:53:27.317Z,8.10
2022-10-23T09:54:27.283Z,5.80
2022-10-23T09:55:27.275Z,3.00
2022-10-23T09:56:27.269Z,5.00
2022-10-23T09:57:27.265Z,4.60
2022-10-23T09:58:27.254Z,2.30
2022-10-23T09:59:27.273Z,4.40
2022-10-23T10:00:27.236Z,3.70
2022-10-23T10:01:27.346Z,3.80
2022-10-23T10:02:27.223Z,3.00
2022-10-23T10:03:27.220Z,3.30
2022-10-23T10:04:27.237Z,3.90
2022-10-23T10:05:27.207Z,5.70
2022-10-23T10:06:27.251Z,5.20
2022-10-23T10:07:27.197Z,2.90
2022-10-23T10:08:27.184Z,7.50
2022-10-23T10:09:27.200Z,3.20
2022-10-23T10:10:27.168Z,2.80
2022-10-23T10:11:27.154Z,4.70
2022-10-23T10:12:27.148Z,5.40
2022-10-23T10:13:27.140Z,4.60
2022-10-23T10:14:27.160Z,3.40
2022-10-23T10:15:27.127Z,4.90
2022-10-23T10:16:27.160Z,3.20
2022-10-23T10:17:27.113Z,5.30
2022-10-23T10:18:27.103Z,2.70
2022-10-23T10:19:27.130Z,3.60
2022-10-23T10:20:27.088Z,4.40
2022-10-23T10:21:27.086Z,6.20
2022-10-23T10:22:27.073Z,6.10
2022-10-23T10:23:27.067Z,6.40
2022-10-23T10:24:27.084Z,3.50
2022-10-23T10:25:27.051Z,6.60
2022-10-23T10:26:27.098Z,4.60
2022-10-23T10:27:27.039Z,6.00
2022-10-23T10:28:27.036Z,4.00
2022-10-23T10:29:27.049Z,4.20
2022-10-23T10:30:27.013Z,2.70
2022-10-23T10:31:27.007Z,5.00
2022-10-23T10:32:27.004Z,5.40
2022-10-23T10:33:26.990Z,4.60
2022-10-23T10:34:27.016Z,3.10
2022-10-23T10:35:26.977Z,5.00
2022-10-23T10:36:26.973Z,6.00
2022-10-23T10:37:26.961Z,3.90
2022-10-23T10:38:26.951Z,5.70
2022-10-23T10:39:26.970Z,4.80
2022-10-23T10:40:26.937Z,5.20
2022-10-23T10:41:26.931Z,3.30
2022-10-23T10:42:26.931Z,2.80
2022-10-23T10:43:26.914Z,5.10
2022-10-23T10:44:26.935Z,5.30
2022-10-23T10:45:26.906Z,6.10
2022-10-23T10:46:26.899Z,9.60
2022-10-23T10:47:26.885Z,6.20
2022-10-23T10:48:26.877Z,6.10
2022-10-23T10:49:26.903Z,5.70
2022-10-23T10:50:26.864Z,6.50
2022-10-23T10:51:26.880Z,6.10
2022-10-23T10:52:26.853Z,4.20
2022-10-23T10:53:26.847Z,5.60
2022-10-23T10:54:26.862Z,3.60
2022-10-23T10:55:26.823Z,5.20
2022-10-23T10:56:27.831Z,6.70
2022-10-23T10:57:26.820Z,5.80
2022-10-23T10:58:26.817Z,6.60
2022-10-23T10:59:26.827Z,4.10
2022-10-23T11:00:26.794Z,6.30
2022-10-23T11:01:27.026Z,4.80
2022-10-23T11:02:26.807Z,7.60
2022-10-23T11:03:26.765Z,5.20
2022-10-23T11:04:27.793Z,4.90
2022-10-23T11:05:26.760Z,7.10
2022-10-23T11:06:26.757Z,5.70
2022-10-23T11:07:26.745Z,6.40
2022-10-23T11:08:26.737Z,3.70
2022-10-23T11:09:26.750Z,4.60
2022-10-23T11:10:26.718Z,4.10
2022-10-23T11:11:26.713Z,6.30
2022-10-23T11:12:26.706Z,7.20
2022-10-23T11:13:26.700Z,4.80
2022-10-23T11:14:26.711Z,7.20
2022-10-23T11:15:26.681Z,7.30
2022-10-23T11:16:26.676Z,5.30
2022-10-23T11:17:26.662Z,6.00
2022-10-23T11:18:26.657Z,5.20
2022-10-23T11:19:26.674Z,5.20
2022-10-23T11:20:26.651Z,5.50
2022-10-23T11:21:26.635Z,3.40
2022-10-23T11:22:26.631Z,3.60
2022-10-23T11:23:26.622Z,4.20
2022-10-23T11:24:26.637Z,4.40
2022-10-23T11:25:26.609Z,5.40
2022-10-23T11:26:26.600Z,3.90
2022-10-23T11:27:26.593Z,5.50
2022-10-23T11:28:26.581Z,6.00
2022-10-23T11:29:26.604Z,4.80
2022-10-23T11:30:26.566Z,4.20
2022-10-23T11:31:26.557Z,4.10
2022-10-23T11:32:26.588Z,6.80
2022-10-23T11:33:26.544Z,4.70
2022-10-23T11:34:26.537Z,4.00
2022-10-23T11:35:26.556Z,3.90
2022-10-23T11:36:26.532Z,6.00
2022-10-23T11:37:26.515Z,5.90
2022-10-23T11:38:26.509Z,5.90
2022-10-23T11:39:26.501Z,5.50
2022-10-23T11:40:26.517Z,6.90
2022-10-23T11:41:27.265Z,3.70
2022-10-23T11:42:26.479Z,4.90
2022-10-23T11:43:26.468Z,6.50
2022-10-23T11:44:26.460Z,3.70
2022-10-23T11:45:26.479Z,5.30
2022-10-23T11:46:26.446Z,4.70
2022-10-23T11:47:26.442Z,4.80
2022-10-23T11:48:26.433Z,5.20
2022-10-23T11:49:26.426Z,6.20
2022-10-23T11:50:26.438Z,5.20
2022-10-23T11:51:26.413Z,7.40
2022-10-23T11:52:26.400Z,5.20
2022-10-23T11:53:26.396Z,5.40
2022-10-23T11:54:26.381Z,4.30
2022-10-23T11:55:26.405Z,5.00
2022-10-23T11:56:26.375Z,3.30
2022-10-23T11:57:26.420Z,5.20
2022-10-23T11:58:26.359Z,4.40
2022-10-23T11:59:26.347Z,4.10
2022-10-23T12:00:26.358Z,3.80
2022-10-23T12:01:26.456Z,5.10
2022-10-23T12:02:26.354Z,5.00
2022-10-23T12:03:26.312Z,2.70
2022-10-23T12:04:26.308Z,4.40
2022-10-23T12:05:26.320Z,2.40
2022-10-23T12:06:26.293Z,5.20
2022-10-23T12:07:26.278Z,2.30
2022-10-23T12:08:26.274Z,3.70
2022-10-23T12:09:26.266Z,3.60
2022-10-23T12:10:26.282Z,4.00
2022-10-23T12:11:27.582Z,4.10
2022-10-23T12:12:26.242Z,5.40
2022-10-23T12:13:26.237Z,4.70
2022-10-23T12:14:26.232Z,2.70
2022-10-23T12:15:26.243Z,5.30
2022-10-23T12:16:26.215Z,5.20
2022-10-23T12:17:26.201Z,7.00
2022-10-23T12:18:26.183Z,4.60
2022-10-23T12:19:27.181Z,8.40
2022-10-23T12:20:26.201Z,4.40
2022-10-23T12:21:26.172Z,5.00
2022-10-23T12:22:26.197Z,5.80
2022-10-23T12:23:26.152Z,4.40
2022-10-23T12:24:26.144Z,4.00
2022-10-23T12:25:26.169Z,7.10
2022-10-23T12:26:26.132Z,5.40
2022-10-23T12:27:26.122Z,4.40
2022-10-23T12:28:26.115Z,5.40
2022-10-23T12:29:26.103Z,4.10
2022-10-23T12:30:26.123Z,4.50
2022-10-23T12:31:26.094Z,6.40
2022-10-23T12:32:26.082Z,11.30
2022-10-23T12:33:26.080Z,6.70
2022-10-23T12:34:26.072Z,12.40
2022-10-23T12:35:26.089Z,8.80
2022-10-23T12:36:26.057Z,8.40
2022-10-23T12:37:26.046Z,7.60
2022-10-23T12:38:26.045Z,10.40
2022-10-23T12:39:26.034Z,10.00
2022-10-23T12:40:26.047Z,7.60
2022-10-23T12:41:26.023Z,8.70
2022-10-23T12:42:26.010Z,9.40
2022-10-23T12:43:26.000Z,7.00
2022-10-23T12:44:25.988Z,17.50
2022-10-23T12:45:26.015Z,14.30
2022-10-23T12:46:25.984Z,11.60
2022-10-23T12:47:26.024Z,7.20
2022-10-23T12:48:25.961Z,9.00
2022-10-23T12:49:25.954Z,8.80
2022-10-23T12:50:25.973Z,12.50
2022-10-23T12:51:25.941Z,10.70
2022-10-23T12:52:25.934Z,11.90
2022-10-23T12:53:25.927Z,11.50
2022-10-23T12:54:25.918Z,14.80
2022-10-23T12:55:25.939Z,10.50
2022-10-23T12:56:25.906Z,9.00
2022-10-23T12:57:25.934Z,8.00
2022-10-23T12:58:25.889Z,8.90
2022-10-23T12:59:25.881Z,15.70
2022-10-23T13:00:25.895Z,9.30
2022-10-23T13:01:25.985Z,11.50
2022-10-23T13:02:25.980Z,12.80
2022-10-23T13:03:25.854Z,12.10
2022-10-23T13:04:25.839Z,13.10
2022-10-23T13:05:25.861Z,14.00
2022-10-23T13:06:25.824Z,11.00
2022-10-23T13:07:25.821Z,11.70
2022-10-23T13:08:25.811Z,14.10
2022-10-23T13:09:25.809Z,11.60